createdAt,value
2022-08-26T00:01:17.980Z,8.48
2022-08-26T00:03:54.556Z,8.10
2022-08-26T00:06:27.603Z,8.15
2022-08-26T00:08:57.739Z,7.95
2022-08-26T00:11:27.863Z,8.45
2022-08-26T00:13:59.104Z,7.90
2022-08-26T00:16:31.597Z,7.50
2022-08-26T00:19:02.168Z,8.70
2022-08-26T00:21:34.917Z,8.25
2022-08-26T00:24:08.139Z,8.25
2022-08-26T00:26:38.926Z,8.43
2022-08-26T00:31:45.109Z,8.00
2022-08-26T00:34:19.319Z,7.73
2022-08-26T00:36:52.455Z,8.38
2022-08-26T00:39:23.368Z,7.85
2022-08-26T00:41:53.781Z,8.25
2022-08-26T00:44:23.925Z,8.45
2022-08-26T00:46:58.473Z,7.22
2022-08-26T00:49:37.544Z,8.68
2022-08-26T00:52:13.046Z,8.38
2022-08-26T00:54:49.584Z,7.28
2022-08-26T00:57:21.679Z,7.88
2022-08-26T00:59:57.330Z,8.68
2022-08-26T01:02:28.996Z,8.73
2022-08-26T01:05:03.412Z,8.85
2022-08-26T01:07:37.936Z,8.13
2022-08-26T01:10:12.167Z,8.73
2022-08-26T01:12:45.997Z,8.73
2022-08-26T01:15:21.088Z,8.88
2022-08-26T01:17:51.711Z,8.20
2022-08-26T01:20:30.279Z,9.45
2022-08-26T01:23:05.692Z,8.98
2022-08-26T01:25:43.615Z,10.23
2022-08-26T01:28:17.605Z,9.35
2022-08-26T01:30:51.153Z,10.05
2022-08-26T01:33:28.121Z,8.65
2022-08-26T01:35:59.180Z,9.07
2022-08-26T01:38:32.881Z,9.52
2022-08-26T01:41:03.793Z,7.78
2022-08-26T01:43:48.440Z,8.70
2022-08-26T01:46:20.491Z,9.38
2022-08-26T01:48:52.349Z,10.57
2022-08-26T01:51:27.574Z,9.50
2022-08-26T01:54:01.689Z,8.68
2022-08-26T01:56:33.162Z,8.50
2022-08-26T01:59:12.222Z,9.75
2022-08-26T02:01:42.908Z,8.90
2022-08-26T02:04:19.492Z,9.90
2022-08-26T02:06:51.468Z,8.63
2022-08-26T02:09:25.968Z,9.30
2022-08-26T02:11:57.295Z,11.10
2022-08-26T02:14:31.699Z,9.40
2022-08-26T02:17:03.682Z,10.00
2022-08-26T02:19:40.389Z,10.10
2022-08-26T02:22:17.909Z,11.38
2022-08-26T02:24:53.372Z,10.40
2022-08-26T02:27:32.447Z,11.43
2022-08-26T02:30:13.007Z,11.60
2022-08-26T02:32:43.517Z,12.10
2022-08-26T02:35:20.015Z,13.10
2022-08-26T02:37:51.152Z,12.48
2022-08-26T02:40:26.936Z,11.02
2022-08-26T02:42:57.270Z,11.63
2022-08-26T02:45:29.265Z,11.77
2022-08-26T02:48:00.953Z,11.63
2022-08-26T02:50:31.152Z,10.43
2022-08-26T02:53:01.589Z,12.05
2022-08-26T02:55:35.681Z,10.52
2022-08-26T02:58:06.281Z,10.77
2022-08-26T03:00:52.612Z,11.27
2022-08-26T03:03:24.244Z,11.73
2022-08-26T03:05:54.518Z,11.90
2022-08-26T03:08:25.018Z,12.85
2022-08-26T03:10:58.176Z,12.48
2022-08-26T03:13:31.776Z,12.05
2022-08-26T03:16:04.604Z,11.95
2022-08-26T03:18:35.371Z,12.82
2022-08-26T03:21:09.101Z,11.30
2022-08-26T03:23:40.170Z,11.18
2022-08-26T03:26:15.355Z,13.52
2022-08-26T03:28:58.584Z,12.15
2022-08-26T03:31:28.910Z,13.17
2022-08-26T03:33:59.309Z,13.68
2022-08-26T03:36:30.274Z,11.57
2022-08-26T03:39:01.168Z,12.93
2022-08-26T03:41:34.734Z,13.77
2022-08-26T03:44:05.298Z,13.93
2022-08-26T03:46:36.577Z,12.18
2022-08-26T03:49:07.464Z,12.52
2022-08-26T03:51:39.949Z,12.38
2022-08-26T03:54:12.397Z,14.27
2022-08-26T03:56:46.593Z,13.18
2022-08-26T03:59:16.980Z,12.57
2022-08-26T04:01:47.211Z,14.57
2022-08-26T04:04:18.644Z,13.07
2022-08-26T04:06:53.251Z,14.40
2022-08-26T04:09:23.801Z,15.52
2022-08-26T04:11:59.212Z,14.65
2022-08-26T04:14:31.344Z,12.70
2022-08-26T04:17:05.077Z,14.35
2022-08-26T04:19:36.279Z,15.32
2022-08-26T04:22:06.591Z,13.68
2022-08-26T04:24:39.678Z,14.23
2022-08-26T04:27:12.506Z,14.77
2022-08-26T04:29:43.200Z,14.05
2022-08-26T04:32:13.340Z,12.82
2022-08-26T04:34:43.708Z,14.23
2022-08-26T04:37:15.258Z,14.80
2022-08-26T04:39:45.599Z,13.82
2022-08-26T04:42:25.872Z,13.80
2022-08-26T04:44:56.388Z,14.70
2022-08-26T04:47:31.688Z,14.20
2022-08-26T04:50:02.518Z,13.40
2022-08-26T04:52:32.714Z,13.05
2022-08-26T04:55:02.858Z,14.35
2022-08-26T04:57:36.094Z,12.40
2022-08-26T05:00:08.185Z,11.18
2022-08-26T05:02:38.388Z,11.15
2022-08-26T05:05:10.227Z,10.35
2022-08-26T05:07:40.346Z,10.00
2022-08-26T05:10:12.464Z,11.52
2022-08-26T05:12:47.684Z,10.95
2022-08-26T05:15:18.206Z,8.70
2022-08-26T05:17:53.670Z,8.93
2022-08-26T05:20:26.092Z,9.15
2022-08-26T05:22:56.561Z,8.75
2022-08-26T05:25:27.386Z,8.13
2022-08-26T05:28:00.539Z,8.00
2022-08-26T05:30:33.139Z,7.35
2022-08-26T05:33:05.148Z,7.07
2022-08-26T05:35:36.178Z,7.38
2022-08-26T05:38:12.671Z,7.13
2022-08-26T05:40:45.524Z,6.95
2022-08-26T05:43:20.214Z,6.63
2022-08-26T05:45:53.041Z,6.22
2022-08-26T05:48:24.611Z,6.55
2022-08-26T05:50:56.191Z,7.25
2022-08-26T05:53:26.364Z,7.10
2022-08-26T05:55:58.427Z,6.47
2022-08-26T05:58:32.620Z,6.65
2022-08-26T06:01:05.393Z,6.10
2022-08-26T06:03:37.516Z,6.05
2022-08-26T06:06:09.826Z,6.85
2022-08-26T06:08:40.902Z,5.97
2022-08-26T06:11:18.440Z,6.45
2022-08-26T06:13:51.567Z,6.38
2022-08-26T06:16:23.977Z,6.50
2022-08-26T06:18:56.094Z,6.17
2022-08-26T06:21:29.084Z,6.95
2022-08-26T06:24:14.103Z,6.15
2022-08-26T06:26:46.670Z,5.90
2022-08-26T06:29:25.595Z,5.93
2022-08-26T06:31:56.625Z,5.93
2022-08-26T06:34:29.712Z,6.63
2022-08-26T06:37:02.771Z,5.68
2022-08-26T06:39:34.266Z,6.93
2022-08-26T06:42:06.327Z,6.03
2022-08-26T06:44:41.027Z,7.05
2022-08-26T06:47:11.454Z,6.50
2022-08-26T06:49:41.596Z,7.22
2022-08-26T06:52:11.892Z,6.97
2022-08-26T06:54:43.622Z,6.53
2022-08-26T06:57:16.710Z,6.80
2022-08-26T06:59:51.181Z,6.80
2022-08-26T07:02:21.465Z,7.13
2022-08-26T07:04:51.625Z,6.70
2022-08-26T07:09:55.233Z,5.88
2022-08-26T07:12:25.983Z,6.70
2022-08-26T07:14:58.953Z,6.82
2022-08-26T07:17:29.391Z,6.68
2022-08-26T07:20:00.183Z,6.22
2022-08-26T07:22:30.610Z,5.90
2022-08-26T07:25:00.755Z,5.35
2022-08-26T07:27:30.900Z,6.72
2022-08-26T07:30:03.995Z,6.18
2022-08-26T07:35:04.141Z,5.82
2022-08-26T07:37:39.077Z,6.30
2022-08-26T07:40:12.107Z,5.70
2022-08-26T07:42:42.966Z,5.47
2022-08-26T07:45:16.038Z,7.07
2022-08-26T07:47:46.519Z,7.00
2022-08-26T07:50:17.277Z,6.20
2022-08-26T07:52:47.875Z,6.22
2022-08-26T07:55:18.497Z,6.80
2022-08-26T07:57:48.813Z,6.95
2022-08-26T08:00:21.867Z,6.28
2022-08-26T08:02:52.305Z,5.82
2022-08-26T08:05:33.338Z,5.95
2022-08-26T08:08:27.539Z,5.82
2022-08-26T08:10:55.410Z,6.30
2022-08-26T08:13:26.649Z,6.45
2022-08-26T08:15:59.458Z,6.57
2022-08-26T08:18:29.628Z,6.15
2022-08-26T08:21:21.458Z,7.20
2022-08-26T08:23:53.999Z,6.28
2022-08-26T08:26:24.573Z,6.13
2022-08-26T08:28:58.684Z,8.20
2022-08-26T08:31:56.036Z,6.60
2022-08-26T08:34:23.677Z,6.38
2022-08-26T08:36:56.383Z,4.95
2022-08-26T08:39:27.027Z,6.10
2022-08-26T08:42:16.685Z,6.07
2022-08-26T08:44:52.401Z,5.70
2022-08-26T08:47:34.366Z,6.07
2022-08-26T08:50:13.617Z,4.88
2022-08-26T08:52:47.470Z,6.25
2022-08-26T08:55:19.273Z,6.28
2022-08-26T08:58:03.114Z,5.80
2022-08-26T09:00:44.442Z,6.45
2022-08-26T09:03:26.494Z,6.38
2022-08-26T09:05:57.044Z,7.47
2022-08-26T09:08:35.287Z,6.00
2022-08-26T09:11:06.879Z,7.20
2022-08-26T09:13:37.880Z,5.78
2022-08-26T09:16:16.188Z,6.57
2022-08-26T09:19:11.288Z,5.97
2022-08-26T09:21:41.516Z,5.95
2022-08-26T09:24:13.923Z,6.35
2022-08-26T09:26:49.783Z,5.70
2022-08-26T09:29:27.025Z,5.93
2022-08-26T09:32:21.312Z,6.45
2022-08-26T09:35:06.147Z,6.03
2022-08-26T09:37:39.830Z,5.65
2022-08-26T09:40:21.945Z,6.57
2022-08-26T09:43:10.209Z,6.20
2022-08-26T09:45:50.270Z,6.03
2022-08-26T09:48:31.816Z,5.30
2022-08-26T09:51:10.156Z,6.13
2022-08-26T09:53:54.214Z,6.22
2022-08-26T09:56:32.271Z,5.88
2022-08-26T09:59:04.027Z,6.57
2022-08-26T10:01:40.319Z,5.53
2022-08-26T10:04:14.950Z,5.65
2022-08-26T10:06:59.403Z,7.20
2022-08-26T10:09:30.884Z,5.57
2022-08-26T10:12:05.516Z,5.60
2022-08-26T10:14:39.498Z,5.90
2022-08-26T10:17:15.862Z,5.00
2022-08-26T10:19:57.166Z,5.13
2022-08-26T10:22:36.617Z,5.53
2022-08-26T10:25:11.166Z,5.63
2022-08-26T10:27:52.706Z,5.32
2022-08-26T10:30:26.176Z,5.18
2022-08-26T10:33:04.126Z,6.03
2022-08-26T10:35:36.304Z,5.15
2022-08-26T10:38:14.694Z,5.93
2022-08-26T10:40:55.305Z,5.22
2022-08-26T10:43:29.466Z,5.82
2022-08-26T10:46:04.170Z,5.68
2022-08-26T10:48:42.109Z,5.82
2022-08-26T10:51:14.416Z,5.28
2022-08-26T10:53:56.062Z,5.25
2022-08-26T10:56:42.269Z,5.82
2022-08-26T10:59:23.007Z,5.18
2022-08-26T11:02:00.893Z,5.65
2022-08-26T11:04:59.810Z,5.55
2022-08-26T11:07:43.717Z,5.85
2022-08-26T11:10:45.830Z,5.05
2022-08-26T11:13:18.761Z,5.85
2022-08-26T11:16:11.222Z,5.50
2022-08-26T11:18:54.811Z,5.68
2022-08-26T11:22:15.187Z,5.32
2022-08-26T11:25:02.741Z,5.72
2022-08-26T11:27:55.697Z,5.40
2022-08-26T11:30:47.862Z,5.28
2022-08-26T11:33:52.123Z,6.60
2022-08-26T11:36:43.887Z,5.15
2022-08-26T11:39:22.177Z,5.78
2022-08-26T11:41:54.344Z,6.32
2022-08-26T11:44:26.726Z,5.80
2022-08-26T11:47:03.266Z,6.03
2022-08-26T11:49:35.030Z,5.03
2022-08-26T11:52:20.899Z,5.47
2022-08-26T11:55:05.247Z,4.45
2022-08-26T11:57:38.095Z,5.80
2022-08-26T12:00:12.496Z,5.45
2022-08-26T12:02:47.356Z,5.25
2022-08-26T12:05:23.763Z,5.45
2022-08-26T12:07:55.337Z,5.15
2022-08-26T12:10:32.022Z,6.78
2022-08-26T12:13:03.355Z,5.95
2022-08-26T12:15:35.755Z,5.97
2022-08-26T12:18:29.713Z,5.30
2022-08-26T12:21:03.464Z,6.65
2022-08-26T12:23:44.531Z,6.53
2022-08-26T12:26:23.924Z,5.70
2022-08-26T12:28:58.164Z,5.43
2022-08-26T12:31:34.458Z,5.88
2022-08-26T12:34:17.554Z,5.85
2022-08-26T12:36:51.366Z,5.80
2022-08-26T12:39:29.997Z,5.72
2022-08-26T12:42:01.842Z,5.57
2022-08-26T12:44:53.745Z,5.83
2022-08-26T12:47:42.282Z,5.60
2022-08-26T12:50:22.744Z,6.65
2022-08-26T12:53:01.807Z,5.07
2022-08-26T12:55:42.328Z,5.30
2022-08-26T12:58:23.574Z,5.00
2022-08-26T13:00:56.144Z,5.85
2022-08-26T13:06:19.801Z,5.97
2022-08-26T13:08:51.600Z,5.35
2022-08-26T13:11:24.966Z,6.13
2022-08-26T13:13:58.395Z,5.25
2022-08-26T13:16:29.183Z,5.68
2022-08-26T13:19:01.847Z,6.03
2022-08-26T13:24:11.914Z,5.70
2022-08-26T13:26:42.922Z,6.07
2022-08-26T13:29:13.660Z,5.70
2022-08-26T13:31:45.736Z,5.60
2022-08-26T13:34:21.028Z,6.50
2022-08-26T13:36:56.452Z,5.10
2022-08-26T13:39:27.381Z,5.47
2022-08-26T13:41:58.082Z,5.43
2022-08-26T13:44:28.211Z,6.03
2022-08-26T13:46:58.385Z,6.28
2022-08-26T13:49:28.764Z,6.60
2022-08-26T13:52:03.819Z,5.95
2022-08-26T13:54:33.963Z,5.97
2022-08-26T13:57:04.371Z,6.43
2022-08-26T13:59:34.772Z,5.25
2022-08-26T14:02:07.079Z,6.85
2022-08-26T14:04:38.750Z,5.32
2022-08-26T14:07:11.626Z,6.30
2022-08-26T14:09:41.736Z,5.30
2022-08-26T14:12:12.226Z,6.18
2022-08-26T14:14:42.587Z,6.95
2022-08-26T14:17:13.128Z,5.60
2022-08-26T14:19:48.278Z,6.63
2022-08-26T14:22:23.666Z,6.07
2022-08-26T14:24:54.084Z,4.88
2022-08-26T14:27:24.209Z,6.18
2022-08-26T14:29:54.557Z,5.97
2022-08-26T14:32:28.964Z,5.70
2022-08-26T14:34:59.486Z,4.78
2022-08-26T14:37:32.300Z,5.28
2022-08-26T14:40:02.490Z,5.53
2022-08-26T14:42:34.200Z,5.32
2022-08-26T14:45:07.263Z,5.38
2022-08-26T14:47:37.485Z,5.80
2022-08-26T14:50:08.781Z,5.22
2022-08-26T14:52:53.647Z,6.28
2022-08-26T14:55:23.754Z,5.82
2022-08-26T14:57:54.153Z,6.13
2022-08-26T15:00:24.482Z,5.40
2022-08-26T15:02:54.857Z,5.82
2022-08-26T15:05:25.167Z,5.78
2022-08-26T15:07:57.893Z,5.97
2022-08-26T15:12:57.988Z,7.13
2022-08-26T15:15:30.201Z,6.17
2022-08-26T15:18:01.610Z,6.30
2022-08-26T15:23:24.661Z,6.55
2022-08-26T15:25:55.102Z,5.25
2022-08-26T15:28:25.275Z,5.90
2022-08-26T15:30:55.784Z,6.15
2022-08-26T15:33:25.962Z,5.32
2022-08-26T15:35:56.118Z,5.80
2022-08-26T15:38:31.168Z,5.95
2022-08-26T15:41:03.213Z,6.47
2022-08-26T15:43:33.639Z,7.15
2022-08-26T15:46:04.084Z,6.28
2022-08-26T15:48:34.484Z,5.88
2022-08-26T15:51:06.460Z,5.72
2022-08-26T15:53:39.238Z,6.00
2022-08-26T15:56:09.900Z,6.45
2022-08-26T15:58:40.722Z,6.28
2022-08-26T16:01:11.655Z,5.88
2022-08-26T16:03:41.827Z,6.55
2022-08-26T16:06:15.829Z,6.22
2022-08-26T16:08:50.129Z,5.30
2022-08-26T16:11:20.742Z,4.90
2022-08-26T16:13:51.040Z,6.15
2022-08-26T16:16:21.835Z,5.38
2022-08-26T16:18:52.277Z,5.85
2022-08-26T16:21:24.525Z,5.25
2022-08-26T16:23:58.462Z,5.53
2022-08-26T16:26:33.054Z,5.88
2022-08-26T16:29:05.318Z,5.38
2022-08-26T16:31:35.598Z,5.32
2022-08-26T16:34:09.294Z,5.63
2022-08-26T16:36:40.708Z,5.78
2022-08-26T16:39:14.020Z,5.93
2022-08-26T16:41:44.419Z,5.25
2022-08-26T16:44:14.655Z,5.57
2022-08-26T16:46:45.773Z,5.35
2022-08-26T16:49:16.013Z,5.30
2022-08-26T16:51:46.958Z,6.25
2022-08-26T16:54:19.716Z,5.65
2022-08-26T16:59:19.917Z,5.30
2022-08-26T17:01:50.064Z,6.15
2022-08-26T17:04:22.005Z,5.40
2022-08-26T17:06:52.183Z,6.88
2022-08-26T17:09:24.965Z,5.95
2022-08-26T17:11:55.225Z,6.55
2022-08-26T17:14:25.368Z,7.47
2022-08-26T17:16:55.529Z,6.82
2022-08-26T17:19:25.744Z,6.55
2022-08-26T17:21:55.945Z,5.75
2022-08-26T17:24:28.679Z,6.72
2022-08-26T17:26:58.825Z,7.07
2022-08-26T17:29:29.171Z,6.05
2022-08-26T17:31:59.335Z,6.80
2022-08-26T17:34:29.453Z,6.05
2022-08-26T17:36:59.567Z,8.27
2022-08-26T17:39:32.555Z,9.80
2022-08-26T17:44:32.503Z,9.65
2022-08-26T17:47:02.708Z,11.07
2022-08-26T17:49:32.866Z,8.60
2022-08-26T17:52:03.312Z,8.98
2022-08-26T17:54:36.217Z,11.13
2022-08-26T17:57:06.461Z,14.45
2022-08-26T17:59:41.628Z,16.35
2022-08-26T18:02:11.776Z,17.80
2022-08-26T18:04:41.963Z,20.17
2022-08-26T18:07:12.253Z,17.15
2022-08-26T18:09:45.237Z,21.63
2022-08-26T18:14:45.923Z,21.50
2022-08-26T18:17:19.405Z,19.25
2022-08-26T18:19:50.241Z,18.30
2022-08-26T18:22:23.373Z,13.10
2022-08-26T18:24:59.270Z,11.40
2022-08-26T18:27:29.749Z,9.05
2022-08-26T18:30:00.240Z,7.45
2022-08-26T18:32:30.521Z,7.28
2022-08-26T18:35:00.740Z,10.32
2022-08-26T18:37:31.813Z,12.00
2022-08-26T18:40:04.868Z,12.38
2022-08-26T18:45:05.168Z,11.07
2022-08-26T18:47:36.669Z,10.13
2022-08-26T18:50:08.340Z,10.25
2022-08-26T18:52:38.489Z,12.18
2022-08-26T18:55:11.794Z,11.85
2022-08-26T18:57:41.978Z,10.85
2022-08-26T19:00:13.845Z,12.27
2022-08-26T19:02:47.061Z,12.18
2022-08-26T19:05:22.475Z,10.60
2022-08-26T19:07:52.649Z,10.13
2022-08-26T19:10:25.389Z,9.68
2022-08-26T19:13:00.076Z,10.43
2022-08-26T19:15:31.458Z,9.02
2022-08-26T19:18:01.963Z,10.07
2022-08-26T19:20:32.211Z,8.25
2022-08-26T19:23:10.497Z,8.45
2022-08-26T19:25:56.353Z,7.40
2022-08-26T19:28:26.516Z,7.63
2022-08-26T19:30:56.970Z,7.32
2022-08-26T19:33:27.306Z,6.80
2022-08-26T19:35:58.942Z,6.85
2022-08-26T19:38:29.101Z,7.07
2022-08-26T19:41:01.878Z,7.65
2022-08-26T19:43:32.192Z,6.28
2022-08-26T19:46:02.437Z,6.22
2022-08-26T19:48:32.583Z,6.53
2022-08-26T19:51:02.708Z,6.68
2022-08-26T19:53:33.268Z,7.88
2022-08-26T19:56:06.375Z,6.95
2022-08-26T19:58:36.684Z,6.70
2022-08-26T20:01:10.174Z,6.32
2022-08-26T20:03:40.762Z,6.63
2022-08-26T20:06:12.821Z,6.70
2022-08-26T20:08:44.644Z,6.47
2022-08-26T20:11:19.955Z,5.75
2022-08-26T20:13:50.954Z,5.43
2022-08-26T20:16:21.339Z,5.60
2022-08-26T20:19:03.848Z,6.72
2022-08-26T20:21:38.349Z,6.47
2022-08-26T20:24:15.447Z,7.55
2022-08-26T20:26:49.010Z,6.65
2022-08-26T20:29:21.724Z,6.13
2022-08-26T20:31:52.520Z,6.60
2022-08-26T20:34:23.638Z,6.82
2022-08-26T20:36:54.043Z,6.55
2022-08-26T20:39:24.644Z,6.80
2022-08-26T20:41:57.797Z,6.72
2022-08-26T20:44:27.995Z,5.50
2022-08-26T20:46:59.329Z,6.60
2022-08-26T20:49:30.473Z,6.07
2022-08-26T20:52:03.838Z,5.97
2022-08-26T20:54:34.434Z,5.93
2022-08-26T20:57:08.222Z,5.72
2022-08-26T20:59:38.665Z,6.32
2022-08-26T21:02:09.297Z,5.50
2022-08-26T21:04:40.583Z,6.30
2022-08-26T21:07:10.777Z,5.90
2022-08-26T21:09:41.439Z,6.30
2022-08-26T21:12:15.095Z,5.85
2022-08-26T21:14:49.036Z,5.63
2022-08-26T21:17:20.123Z,6.05
2022-08-26T21:19:50.311Z,6.78
2022-08-26T21:22:20.615Z,5.82
2022-08-26T21:24:50.801Z,6.60
2022-08-26T21:29:59.949Z,6.82
2022-08-26T21:32:30.346Z,5.80
2022-08-26T21:35:02.538Z,5.82
2022-08-26T21:37:34.919Z,5.93
2022-08-26T21:40:05.673Z,6.63
2022-08-26T21:42:38.969Z,5.78
2022-08-26T21:47:40.750Z,5.93
2022-08-26T21:50:12.232Z,6.18
2022-08-26T21:52:42.836Z,6.18
2022-08-26T21:55:13.462Z,6.32
2022-08-26T21:57:46.250Z,5.93
2022-08-26T22:00:17.770Z,6.15
2022-08-26T22:02:48.160Z,5.80
2022-08-26T22:05:18.918Z,6.07
2022-08-26T22:07:49.049Z,5.80
2022-08-26T22:10:19.273Z,5.57
2022-08-26T22:12:52.174Z,5.50
2022-08-26T22:15:26.024Z,5.80
2022-08-26T22:17:56.177Z,6.93
2022-08-26T22:20:26.548Z,6.65
2022-08-26T22:22:56.679Z,6.00
2022-08-26T22:25:26.804Z,6.63
2022-08-26T22:27:59.655Z,7.20
2022-08-26T22:30:32.986Z,5.25
2022-08-26T22:35:33.619Z,5.80
2022-08-26T22:38:03.769Z,5.65
2022-08-26T22:40:35.606Z,6.47
2022-08-26T22:43:08.406Z,6.43
2022-08-26T22:45:44.729Z,6.35
2022-08-26T22:48:17.094Z,6.47
2022-08-26T22:50:49.381Z,6.90
2022-08-26T22:53:21.022Z,5.95
2022-08-26T22:55:51.652Z,6.28
2022-08-26T22:58:30.672Z,7.07
2022-08-26T23:01:02.409Z,6.80
2022-08-26T23:03:33.310Z,6.75
2022-08-26T23:06:03.597Z,6.15
2022-08-26T23:08:33.768Z,7.22
2022-08-26T23:11:05.339Z,6.82
2022-08-26T23:13:38.171Z,6.78
2022-08-26T23:16:11.984Z,6.65
2022-08-26T23:18:43.453Z,7.00
2022-08-26T23:21:13.629Z,6.18
2022-08-26T23:23:44.467Z,6.70
2022-08-26T23:26:17.641Z,6.32
2022-08-26T23:28:50.712Z,6.38
2022-08-26T23:31:20.848Z,7.00
2022-08-26T23:34:03.400Z,6.75
2022-08-26T23:36:34.944Z,6.55
2022-08-26T23:39:06.173Z,6.68
2022-08-26T23:41:36.308Z,7.32
2022-08-26T23:44:12.486Z,6.20
2022-08-26T23:46:42.656Z,7.25
2022-08-26T23:49:12.846Z,7.38
2022-08-26T23:51:55.328Z,6.85
2022-08-26T23:54:25.688Z,6.38
2022-08-26T23:56:55.842Z,7.15
2022-08-26T23:59:28.908Z,8.15
